sensor_id;sensor_type;location;lat;lon;timestamp;P1;durP1;ratioP1;P2;durP2;ratioP2
74223;SDS011;62585;49.706;18.216;2023-08-31T00:00:41;5.07;;;3.53;;
74223;SDS011;62585;49.706;18.216;2023-08-31T00:03:26;6.40;;;3.70;;
74223;SDS011;62585;49.706;18.216;2023-08-31T00:05:52;6.20;;;3.78;;
74223;SDS011;62585;49.706;18.216;2023-08-31T00:08:18;6.55;;;3.33;;
74223;SDS011;62585;49.706;18.216;2023-08-31T00:10:44;7.88;;;4.07;;
74223;SDS011;62585;49.706;18.216;2023-08-31T00:13:10;6.53;;;3.55;;
74223;SDS011;62585;49.706;18.216;2023-08-31T00:15:37;5.35;;;3.47;;
74223;SDS011;62585;49.706;18.216;2023-08-31T00:18:03;9.15;;;3.85;;
74223;SDS011;62585;49.706;18.216;2023-08-31T00:20:32;5.85;;;3.30;;
74223;SDS011;62585;49.706;18.216;2023-08-31T00:23:01;5.63;;;3.30;;
74223;SDS011;62585;49.706;18.216;2023-08-31T00:25:26;4.90;;;2.97;;
74223;SDS011;62585;49.706;18.216;2023-08-31T00:27:53;5.25;;;3.40;;
74223;SDS011;62585;49.706;18.216;2023-08-31T00:30:19;6.90;;;3.30;;
74223;SDS011;62585;49.706;18.216;2023-08-31T00:32:45;8.23;;;4.20;;
74223;SDS011;62585;49.706;18.216;2023-08-31T00:35:12;7.35;;;3.63;;
74223;SDS011;62585;49.706;18.216;2023-08-31T00:37:38;8.38;;;3.45;;
74223;SDS011;62585;49.706;18.216;2023-08-31T00:40:04;5.95;;;3.55;;
74223;SDS011;62585;49.706;18.216;2023-08-31T00:42:32;5.85;;;3.90;;
74223;SDS011;62585;49.706;18.216;2023-08-31T00:44:58;6.50;;;4.03;;
74223;SDS011;62585;49.706;18.216;2023-08-31T00:47:23;8.23;;;4.38;;
74223;SDS011;62585;49.706;18.216;2023-08-31T00:49:50;7.82;;;4.20;;
74223;SDS011;62585;49.706;18.216;2023-08-31T00:52:15;7.50;;;4.47;;
74223;SDS011;62585;49.706;18.216;2023-08-31T00:54:44;7.22;;;4.30;;
74223;SDS011;62585;49.706;18.216;2023-08-31T00:57:11;9.10;;;3.75;;
74223;SDS011;62585;49.706;18.216;2023-08-31T00:59:36;10.70;;;4.55;;
74223;SDS011;62585;49.706;18.216;2023-08-31T01:02:04;9.07;;;4.78;;
74223;SDS011;62585;49.706;18.216;2023-08-31T01:07:45;5.97;;;4.38;;
74223;SDS011;62585;49.706;18.216;2023-08-31T01:10:32;8.57;;;4.40;;
74223;SDS011;62585;49.706;18.216;2023-08-31T01:13:14;7.28;;;4.20;;
74223;SDS011;62585;49.706;18.216;2023-08-31T01:15:46;8.45;;;4.97;;
74223;SDS011;62585;49.706;18.216;2023-08-31T01:18:16;7.10;;;4.43;;
74223;SDS011;62585;49.706;18.216;2023-08-31T01:23:25;7.97;;;4.60;;
74223;SDS011;62585;49.706;18.216;2023-08-31T01:28:35;7.30;;;3.88;;
74223;SDS011;62585;49.706;18.216;2023-08-31T01:31:03;7.78;;;4.28;;
74223;SDS011;62585;49.706;18.216;2023-08-31T01:33:30;6.55;;;4.22;;
74223;SDS011;62585;49.706;18.216;2023-08-31T01:35:57;7.57;;;4.20;;
74223;SDS011;62585;49.706;18.216;2023-08-31T01:38:25;6.45;;;3.80;;
74223;SDS011;62585;49.706;18.216;2023-08-31T01:41:00;5.53;;;3.38;;
74223;SDS011;62585;49.706;18.216;2023-08-31T01:43:31;6.13;;;3.35;;
74223;SDS011;62585;49.706;18.216;2023-08-31T01:45:59;7.40;;;3.92;;
74223;SDS011;62585;49.706;18.216;2023-08-31T01:48:25;6.75;;;3.40;;
74223;SDS011;62585;49.706;18.216;2023-08-31T01:50:51;6.68;;;3.83;;
74223;SDS011;62585;49.706;18.216;2023-08-31T01:53:17;6.45;;;3.45;;
74223;SDS011;62585;49.706;18.216;2023-08-31T01:55:43;7.63;;;4.05;;
74223;SDS011;62585;49.706;18.216;2023-08-31T01:58:08;6.20;;;3.63;;
74223;SDS011;62585;49.706;18.216;2023-08-31T02:00:34;7.90;;;4.38;;
74223;SDS011;62585;49.706;18.216;2023-08-31T02:03:02;6.47;;;4.18;;
74223;SDS011;62585;49.706;18.216;2023-08-31T02:05:28;8.73;;;4.22;;
74223;SDS011;62585;49.706;18.216;2023-08-31T02:07:54;10.10;;;4.63;;
74223;SDS011;62585;49.706;18.216;2023-08-31T02:15:30;5.78;;;3.40;;
74223;SDS011;62585;49.706;18.216;2023-08-31T02:17:56;9.10;;;3.65;;
74223;SDS011;62585;49.706;18.216;2023-08-31T02:20:21;6.07;;;3.95;;
74223;SDS011;62585;49.706;18.216;2023-08-31T02:22:47;5.25;;;3.55;;
74223;SDS011;62585;49.706;18.216;2023-08-31T02:25:14;5.18;;;3.53;;
74223;SDS011;62585;49.706;18.216;2023-08-31T02:27:42;7.05;;;4.00;;
74223;SDS011;62585;49.706;18.216;2023-08-31T02:30:07;7.10;;;4.13;;
74223;SDS011;62585;49.706;18.216;2023-08-31T02:32:34;7.38;;;3.63;;
74223;SDS011;62585;49.706;18.216;2023-08-31T02:35:00;4.88;;;3.35;;
74223;SDS011;62585;49.706;18.216;2023-08-31T02:37:26;6.32;;;3.53;;
74223;SDS011;62585;49.706;18.216;2023-08-31T02:39:51;5.35;;;3.30;;
74223;SDS011;62585;49.706;18.216;2023-08-31T02:42:17;6.45;;;3.75;;
74223;SDS011;62585;49.706;18.216;2023-08-31T02:44:43;4.50;;;2.90;;
74223;SDS011;62585;49.706;18.216;2023-08-31T02:47:09;5.25;;;3.63;;
74223;SDS011;62585;49.706;18.216;2023-08-31T02:49:34;5.95;;;3.38;;
74223;SDS011;62585;49.706;18.216;2023-08-31T02:52:00;6.20;;;3.25;;
74223;SDS011;62585;49.706;18.216;2023-08-31T02:54:26;6.60;;;3.20;;
74223;SDS011;62585;49.706;18.216;2023-08-31T02:56:52;7.30;;;3.80;;
74223;SDS011;62585;49.706;18.216;2023-08-31T02:59:17;6.47;;;3.42;;
74223;SDS011;62585;49.706;18.216;2023-08-31T03:01:43;6.40;;;3.70;;
74223;SDS011;62585;49.706;18.216;2023-08-31T03:04:11;6.00;;;3.72;;
74223;SDS011;62585;49.706;18.216;2023-08-31T03:06:37;5.05;;;3.28;;
74223;SDS011;62585;49.706;18.216;2023-08-31T03:09:03;6.70;;;4.00;;
74223;SDS011;62585;49.706;18.216;2023-08-31T03:11:30;6.10;;;3.80;;
74223;SDS011;62585;49.706;18.216;2023-08-31T03:13:55;5.82;;;3.40;;
74223;SDS011;62585;49.706;18.216;2023-08-31T03:16:21;8.68;;;3.63;;
74223;SDS011;62585;49.706;18.216;2023-08-31T03:18:47;6.30;;;3.63;;
74223;SDS011;62585;49.706;18.216;2023-08-31T03:21:13;5.70;;;3.83;;
74223;SDS011;62585;49.706;18.216;2023-08-31T03:23:38;6.05;;;3.60;;
74223;SDS011;62585;49.706;18.216;2023-08-31T03:26:07;4.78;;;3.20;;
74223;SDS011;62585;49.706;18.216;2023-08-31T03:28:33;5.68;;;3.58;;
74223;SDS011;62585;49.706;18.216;2023-08-31T03:30:59;7.30;;;3.55;;
74223;SDS011;62585;49.706;18.216;2023-08-31T03:33:26;5.97;;;3.40;;
74223;SDS011;62585;49.706;18.216;2023-08-31T03:35:54;6.15;;;3.42;;
74223;SDS011;62585;49.706;18.216;2023-08-31T03:38:25;6.60;;;4.18;;
74223;SDS011;62585;49.706;18.216;2023-08-31T03:40:54;6.93;;;4.20;;
74223;SDS011;62585;49.706;18.216;2023-08-31T03:43:20;7.07;;;3.25;;
74223;SDS011;62585;49.706;18.216;2023-08-31T03:45:46;5.60;;;3.78;;
74223;SDS011;62585;49.706;18.216;2023-08-31T03:48:12;6.45;;;4.07;;
74223;SDS011;62585;49.706;18.216;2023-08-31T03:50:37;5.45;;;3.75;;
74223;SDS011;62585;49.706;18.216;2023-08-31T03:53:03;5.07;;;3.13;;
74223;SDS011;62585;49.706;18.216;2023-08-31T03:55:29;5.18;;;2.90;;
74223;SDS011;62585;49.706;18.216;2023-08-31T03:57:55;7.60;;;3.90;;
74223;SDS011;62585;49.706;18.216;2023-08-31T04:00:21;7.13;;;3.47;;
74223;SDS011;62585;49.706;18.216;2023-08-31T04:02:46;6.47;;;4.07;;
74223;SDS011;62585;49.706;18.216;2023-08-31T04:05:12;5.80;;;3.20;;
74223;SDS011;62585;49.706;18.216;2023-08-31T04:07:40;6.25;;;3.70;;
74223;SDS011;62585;49.706;18.216;2023-08-31T04:10:06;6.38;;;3.83;;
74223;SDS011;62585;49.706;18.216;2023-08-31T04:12:33;6.60;;;4.10;;
74223;SDS011;62585;49.706;18.216;2023-08-31T04:17:25;7.03;;;3.53;;
74223;SDS011;62585;49.706;18.216;2023-08-31T04:19:51;6.35;;;3.22;;
74223;SDS011;62585;49.706;18.216;2023-08-31T04:22:17;5.00;;;3.05;;
74223;SDS011;62585;49.706;18.216;2023-08-31T04:24:43;5.18;;;3.15;;
74223;SDS011;62585;49.706;18.216;2023-08-31T04:27:09;4.55;;;2.80;;
74223;SDS011;62585;49.706;18.216;2023-08-31T04:29:35;6.57;;;3.22;;
74223;SDS011;62585;49.706;18.216;2023-08-31T04:32:01;6.72;;;3.13;;
74223;SDS011;62585;49.706;18.216;2023-08-31T04:34:26;5.60;;;2.80;;
74223;SDS011;62585;49.706;18.216;2023-08-31T04:36:52;4.30;;;2.45;;
74223;SDS011;62585;49.706;18.216;2023-08-31T04:39:18;3.80;;;2.08;;
74223;SDS011;62585;49.706;18.216;2023-08-31T04:41:44;4.07;;;2.15;;
74223;SDS011;62585;49.706;18.216;2023-08-31T04:44:10;5.35;;;2.05;;
74223;SDS011;62585;49.706;18.216;2023-08-31T04:46:38;4.07;;;2.13;;
74223;SDS011;62585;49.706;18.216;2023-08-31T04:49:04;3.47;;;2.00;;
74223;SDS011;62585;49.706;18.216;2023-08-31T04:51:34;4.45;;;2.30;;
74223;SDS011;62585;49.706;18.216;2023-08-31T04:54:02;3.63;;;2.30;;
74223;SDS011;62585;49.706;18.216;2023-08-31T04:56:29;3.92;;;2.35;;
74223;SDS011;62585;49.706;18.216;2023-08-31T04:58:57;2.70;;;1.77;;
74223;SDS011;62585;49.706;18.216;2023-08-31T05:01:23;4.30;;;2.30;;
74223;SDS011;62585;49.706;18.216;2023-08-31T05:03:48;7.05;;;2.83;;
74223;SDS011;62585;49.706;18.216;2023-08-31T05:06:14;4.28;;;2.00;;
74223;SDS011;62585;49.706;18.216;2023-08-31T05:08:40;3.80;;;2.50;;
74223;SDS011;62585;49.706;18.216;2023-08-31T05:11:06;3.22;;;1.80;;
74223;SDS011;62585;49.706;18.216;2023-08-31T05:13:31;3.83;;;2.20;;
74223;SDS011;62585;49.706;18.216;2023-08-31T05:15:57;3.58;;;2.22;;
74223;SDS011;62585;49.706;18.216;2023-08-31T05:18:23;4.07;;;2.30;;
74223;SDS011;62585;49.706;18.216;2023-08-31T05:20:49;3.03;;;1.80;;
74223;SDS011;62585;49.706;18.216;2023-08-31T05:23:14;2.83;;;2.17;;
74223;SDS011;62585;49.706;18.216;2023-08-31T05:25:43;4.05;;;1.98;;
74223;SDS011;62585;49.706;18.216;2023-08-31T05:28:10;3.75;;;2.00;;
74223;SDS011;62585;49.706;18.216;2023-08-31T05:30:35;3.80;;;2.28;;
74223;SDS011;62585;49.706;18.216;2023-08-31T05:33:01;5.65;;;2.15;;
74223;SDS011;62585;49.706;18.216;2023-08-31T05:35:28;3.33;;;2.15;;
74223;SDS011;62585;49.706;18.216;2023-08-31T05:37:55;3.85;;;2.50;;
74223;SDS011;62585;49.706;18.216;2023-08-31T05:40:21;3.65;;;2.22;;
74223;SDS011;62585;49.706;18.216;2023-08-31T05:42:47;4.30;;;2.33;;
74223;SDS011;62585;49.706;18.216;2023-08-31T05:45:13;4.50;;;2.80;;
74223;SDS011;62585;49.706;18.216;2023-08-31T05:47:40;5.57;;;2.60;;
74223;SDS011;62585;49.706;18.216;2023-08-31T05:50:06;5.07;;;2.42;;
74223;SDS011;62585;49.706;18.216;2023-08-31T05:52:32;3.45;;;2.22;;
74223;SDS011;62585;49.706;18.216;2023-08-31T05:54:58;4.38;;;2.30;;
74223;SDS011;62585;49.706;18.216;2023-08-31T05:57:25;4.28;;;2.50;;
74223;SDS011;62585;49.706;18.216;2023-08-31T05:59:53;5.32;;;2.70;;
74223;SDS011;62585;49.706;18.216;2023-08-31T06:02:21;4.57;;;2.67;;
74223;SDS011;62585;49.706;18.216;2023-08-31T06:04:47;3.85;;;2.53;;
74223;SDS011;62585;49.706;18.216;2023-08-31T06:07:12;5.35;;;2.80;;
74223;SDS011;62585;49.706;18.216;2023-08-31T06:09:38;5.30;;;2.72;;
74223;SDS011;62585;49.706;18.216;2023-08-31T06:12:04;4.68;;;2.35;;
74223;SDS011;62585;49.706;18.216;2023-08-31T06:14:31;5.18;;;2.90;;
74223;SDS011;62585;49.706;18.216;2023-08-31T06:16:58;4.70;;;2.42;;
74223;SDS011;62585;49.706;18.216;2023-08-31T06:19:23;5.57;;;3.03;;
74223;SDS011;62585;49.706;18.216;2023-08-31T06:21:49;7.03;;;3.40;;
74223;SDS011;62585;49.706;18.216;2023-08-31T06:24:15;7.03;;;3.63;;
74223;SDS011;62585;49.706;18.216;2023-08-31T06:26:41;7.75;;;3.47;;
74223;SDS011;62585;49.706;18.216;2023-08-31T06:29:10;6.57;;;4.07;;
74223;SDS011;62585;49.706;18.216;2023-08-31T06:31:53;8.05;;;4.63;;
74223;SDS011;62585;49.706;18.216;2023-08-31T06:34:31;7.95;;;4.50;;
74223;SDS011;62585;49.706;18.216;2023-08-31T06:36:58;8.38;;;3.92;;
74223;SDS011;62585;49.706;18.216;2023-08-31T06:39:24;8.35;;;4.95;;
74223;SDS011;62585;49.706;18.216;2023-08-31T06:41:50;7.65;;;5.00;;
74223;SDS011;62585;49.706;18.216;2023-08-31T06:44:16;7.72;;;4.30;;
74223;SDS011;62585;49.706;18.216;2023-08-31T06:46:42;8.23;;;4.65;;
74223;SDS011;62585;49.706;18.216;2023-08-31T06:49:08;9.77;;;4.68;;
74223;SDS011;62585;49.706;18.216;2023-08-31T06:51:35;9.45;;;5.55;;
74223;SDS011;62585;49.706;18.216;2023-08-31T06:54:01;8.85;;;5.05;;
74223;SDS011;62585;49.706;18.216;2023-08-31T06:56:34;9.63;;;4.78;;
74223;SDS011;62585;49.706;18.216;2023-08-31T06:59:01;8.93;;;4.88;;
74223;SDS011;62585;49.706;18.216;2023-08-31T07:03:54;8.80;;;4.80;;
74223;SDS011;62585;49.706;18.216;2023-08-31T07:06:21;8.75;;;5.35;;
74223;SDS011;62585;49.706;18.216;2023-08-31T07:08:46;8.52;;;4.93;;
74223;SDS011;62585;49.706;18.216;2023-08-31T07:11:13;9.95;;;5.50;;
74223;SDS011;62585;49.706;18.216;2023-08-31T07:13:40;9.93;;;5.68;;
74223;SDS011;62585;49.706;18.216;2023-08-31T07:16:06;9.57;;;6.03;;
74223;SDS011;62585;49.706;18.216;2023-08-31T07:18:32;9.65;;;5.95;;
74223;SDS011;62585;49.706;18.216;2023-08-31T07:20:58;11.57;;;6.35;;
74223;SDS011;62585;49.706;18.216;2023-08-31T07:23:23;9.20;;;5.68;;
74223;SDS011;62585;49.706;18.216;2023-08-31T07:25:49;11.77;;;6.47;;
74223;SDS011;62585;49.706;18.216;2023-08-31T07:28:15;9.65;;;5.80;;
74223;SDS011;62585;49.706;18.216;2023-08-31T07:30:41;10.63;;;5.13;;
74223;SDS011;62585;49.706;18.216;2023-08-31T07:33:07;12.93;;;6.07;;
74223;SDS011;62585;49.706;18.216;2023-08-31T07:35:33;9.25;;;5.55;;
74223;SDS011;62585;49.706;18.216;2023-08-31T07:37:59;11.05;;;6.22;;
74223;SDS011;62585;49.706;18.216;2023-08-31T07:40:24;11.45;;;5.95;;
74223;SDS011;62585;49.706;18.216;2023-08-31T07:42:53;10.07;;;6.18;;
74223;SDS011;62585;49.706;18.216;2023-08-31T07:45:19;9.48;;;5.82;;
74223;SDS011;62585;49.706;18.216;2023-08-31T07:47:44;8.80;;;5.10;;
74223;SDS011;62585;49.706;18.216;2023-08-31T07:50:10;9.10;;;5.93;;
74223;SDS011;62585;49.706;18.216;2023-08-31T07:52:37;11.35;;;6.43;;
74223;SDS011;62585;49.706;18.216;2023-08-31T07:55:03;7.55;;;4.63;;
74223;SDS011;62585;49.706;18.216;2023-08-31T07:57:29;8.75;;;5.70;;
74223;SDS011;62585;49.706;18.216;2023-08-31T07:59:55;7.70;;;4.85;;
74223;SDS011;62585;49.706;18.216;2023-08-31T08:02:21;7.55;;;4.90;;
74223;SDS011;62585;49.706;18.216;2023-08-31T08:04:47;6.13;;;4.43;;
74223;SDS011;62585;49.706;18.216;2023-08-31T08:07:13;6.53;;;4.95;;
74223;SDS011;62585;49.706;18.216;2023-08-31T08:09:38;10.18;;;5.30;;
74223;SDS011;62585;49.706;18.216;2023-08-31T08:12:04;7.05;;;5.28;;
74223;SDS011;62585;49.706;18.216;2023-08-31T08:14:30;7.45;;;5.25;;
74223;SDS011;62585;49.706;18.216;2023-08-31T08:16:56;6.47;;;4.70;;
74223;SDS011;62585;49.706;18.216;2023-08-31T08:19:22;9.15;;;5.35;;
74223;SDS011;62585;49.706;18.216;2023-08-31T08:21:49;6.45;;;5.40;;
74223;SDS011;62585;49.706;18.216;2023-08-31T08:24:17;6.82;;;4.88;;
74223;SDS011;62585;49.706;18.216;2023-08-31T08:26:43;7.25;;;4.53;;
74223;SDS011;62585;49.706;18.216;2023-08-31T08:29:09;7.03;;;4.15;;
74223;SDS011;62585;49.706;18.216;2023-08-31T08:31:35;5.10;;;4.00;;
74223;SDS011;62585;49.706;18.216;2023-08-31T08:34:01;5.68;;;3.67;;
74223;SDS011;62585;49.706;18.216;2023-08-31T08:36:28;6.22;;;4.25;;
74223;SDS011;62585;49.706;18.216;2023-08-31T08:38:54;4.75;;;3.70;;
74223;SDS011;62585;49.706;18.216;2023-08-31T08:41:22;7.03;;;3.95;;
74223;SDS011;62585;49.706;18.216;2023-08-31T08:43:50;5.22;;;3.95;;
74223;SDS011;62585;49.706;18.216;2023-08-31T08:46:16;4.93;;;3.58;;
74223;SDS011;62585;49.706;18.216;2023-08-31T08:48:42;5.55;;;3.80;;
74223;SDS011;62585;49.706;18.216;2023-08-31T08:51:10;5.13;;;4.50;;
74223;SDS011;62585;49.706;18.216;2023-08-31T08:53:36;5.38;;;3.55;;
74223;SDS011;62585;49.706;18.216;2023-08-31T08:56:04;7.53;;;3.33;;
74223;SDS011;62585;49.706;18.216;2023-08-31T08:58:30;8.02;;;3.63;;
74223;SDS011;62585;49.706;18.216;2023-08-31T09:00:56;4.40;;;3.30;;
74223;SDS011;62585;49.706;18.216;2023-08-31T09:03:22;6.72;;;4.10;;
74223;SDS011;62585;49.706;18.216;2023-08-31T09:05:49;6.45;;;4.90;;
74223;SDS011;62585;49.706;18.216;2023-08-31T09:08:17;4.55;;;3.30;;
74223;SDS011;62585;49.706;18.216;2023-08-31T09:10:50;5.60;;;3.67;;
74223;SDS011;62585;49.706;18.216;2023-08-31T09:13:17;4.30;;;3.60;;
74223;SDS011;62585;49.706;18.216;2023-08-31T09:15:43;6.75;;;3.95;;
74223;SDS011;62585;49.706;18.216;2023-08-31T09:18:17;5.65;;;3.92;;
74223;SDS011;62585;49.706;18.216;2023-08-31T09:20:49;5.55;;;3.70;;
74223;SDS011;62585;49.706;18.216;2023-08-31T09:23:15;5.10;;;3.80;;
74223;SDS011;62585;49.706;18.216;2023-08-31T09:25:48;4.30;;;3.70;;
74223;SDS011;62585;49.706;18.216;2023-08-31T09:28:16;4.65;;;3.17;;
74223;SDS011;62585;49.706;18.216;2023-08-31T09:30:48;5.15;;;3.75;;
74223;SDS011;62585;49.706;18.216;2023-08-31T09:33:16;6.00;;;3.47;;
74223;SDS011;62585;49.706;18.216;2023-08-31T09:35:52;4.88;;;3.70;;
74223;SDS011;62585;49.706;18.216;2023-08-31T09:38:21;4.80;;;3.67;;
74223;SDS011;62585;49.706;18.216;2023-08-31T09:40:46;4.75;;;3.47;;
74223;SDS011;62585;49.706;18.216;2023-08-31T09:43:25;5.03;;;3.33;;
74223;SDS011;62585;49.706;18.216;2023-08-31T09:45:50;4.03;;;3.22;;
74223;SDS011;62585;49.706;18.216;2023-08-31T09:48:18;4.70;;;3.55;;
74223;SDS011;62585;49.706;18.216;2023-08-31T09:50:44;5.60;;;3.55;;
74223;SDS011;62585;49.706;18.216;2023-08-31T09:53:13;5.85;;;3.47;;
74223;SDS011;62585;49.706;18.216;2023-08-31T09:55:41;4.82;;;3.50;;
74223;SDS011;62585;49.706;18.216;2023-08-31T09:58:09;3.95;;;2.72;;
74223;SDS011;62585;49.706;18.216;2023-08-31T10:00:37;4.03;;;3.17;;
74223;SDS011;62585;49.706;18.216;2023-08-31T10:03:04;4.07;;;2.97;;
74223;SDS011;62585;49.706;18.216;2023-08-31T10:05:31;3.97;;;2.92;;
74223;SDS011;62585;49.706;18.216;2023-08-31T10:07:58;3.67;;;2.80;;
74223;SDS011;62585;49.706;18.216;2023-08-31T10:10:24;4.30;;;2.53;;
74223;SDS011;62585;49.706;18.216;2023-08-31T10:12:51;6.15;;;3.15;;
74223;SDS011;62585;49.706;18.216;2023-08-31T10:15:18;4.07;;;2.90;;
74223;SDS011;62585;49.706;18.216;2023-08-31T10:17:44;3.20;;;2.70;;
74223;SDS011;62585;49.706;18.216;2023-08-31T10:20:15;5.07;;;2.78;;
74223;SDS011;62585;49.706;18.216;2023-08-31T10:22:43;3.33;;;2.50;;
74223;SDS011;62585;49.706;18.216;2023-08-31T10:25:09;4.95;;;2.85;;
74223;SDS011;62585;49.706;18.216;2023-08-31T10:27:43;4.22;;;2.75;;
74223;SDS011;62585;49.706;18.216;2023-08-31T10:35:41;3.63;;;2.92;;
74223;SDS011;62585;49.706;18.216;2023-08-31T10:38:23;3.67;;;2.83;;
74223;SDS011;62585;49.706;18.216;2023-08-31T10:43:44;3.15;;;2.70;;
74223;SDS011;62585;49.706;18.216;2023-08-31T10:46:30;5.38;;;2.78;;
74223;SDS011;62585;49.706;18.216;2023-08-31T10:51:41;5.30;;;3.15;;
74223;SDS011;62585;49.706;18.216;2023-08-31T11:02:36;3.75;;;2.95;;
74223;SDS011;62585;49.706;18.216;2023-08-31T11:07:42;3.92;;;2.65;;
74223;SDS011;62585;49.706;18.216;2023-08-31T11:10:19;3.72;;;2.60;;
74223;SDS011;62585;49.706;18.216;2023-08-31T11:12:48;3.45;;;2.88;;
74223;SDS011;62585;49.706;18.216;2023-08-31T11:15:16;4.45;;;2.53;;
74223;SDS011;62585;49.706;18.216;2023-08-31T11:17:43;3.03;;;2.53;;
74223;SDS011;62585;49.706;18.216;2023-08-31T11:20:13;4.13;;;2.60;;
74223;SDS011;62585;49.706;18.216;2023-08-31T11:22:44;3.40;;;2.42;;
74223;SDS011;62585;49.706;18.216;2023-08-31T11:25:12;3.38;;;2.35;;
74223;SDS011;62585;49.706;18.216;2023-08-31T11:27:39;3.75;;;2.67;;
74223;SDS011;62585;49.706;18.216;2023-08-31T11:30:14;3.85;;;2.40;;
74223;SDS011;62585;49.706;18.216;2023-08-31T11:32:47;4.50;;;2.85;;
74223;SDS011;62585;49.706;18.216;2023-08-31T11:35:14;3.97;;;3.10;;
74223;SDS011;62585;49.706;18.216;2023-08-31T11:37:42;5.57;;;2.60;;
74223;SDS011;62585;49.706;18.216;2023-08-31T11:40:09;4.65;;;2.80;;
74223;SDS011;62585;49.706;18.216;2023-08-31T11:42:35;3.47;;;2.38;;
74223;SDS011;62585;49.706;18.216;2023-08-31T11:45:01;4.22;;;3.28;;
74223;SDS011;62585;49.706;18.216;2023-08-31T11:47:30;2.60;;;2.30;;
74223;SDS011;62585;49.706;18.216;2023-08-31T11:49:59;5.28;;;2.80;;
74223;SDS011;62585;49.706;18.216;2023-08-31T11:52:28;4.05;;;2.50;;
74223;SDS011;62585;49.706;18.216;2023-08-31T11:54:56;4.13;;;2.63;;
74223;SDS011;62585;49.706;18.216;2023-08-31T11:57:30;3.65;;;2.58;;
74223;SDS011;62585;49.706;18.216;2023-08-31T11:59:56;3.20;;;2.60;;
74223;SDS011;62585;49.706;18.216;2023-08-31T12:02:22;2.92;;;2.45;;
74223;SDS011;62585;49.706;18.216;2023-08-31T12:04:48;4.38;;;1.63;;
74223;SDS011;62585;49.706;18.216;2023-08-31T12:07:17;2.97;;;1.48;;
74223;SDS011;62585;49.706;18.216;2023-08-31T12:09:47;4.80;;;1.67;;
74223;SDS011;62585;49.706;18.216;2023-08-31T12:12:15;2.58;;;1.75;;
74223;SDS011;62585;49.706;18.216;2023-08-31T12:14:45;4.60;;;2.17;;
74223;SDS011;62585;49.706;18.216;2023-08-31T12:17:11;2.63;;;1.98;;
74223;SDS011;62585;49.706;18.216;2023-08-31T12:19:37;2.60;;;1.80;;
74223;SDS011;62585;49.706;18.216;2023-08-31T12:22:06;7.55;;;2.00;;
74223;SDS011;62585;49.706;18.216;2023-08-31T12:24:38;4.50;;;2.10;;
74223;SDS011;62585;49.706;18.216;2023-08-31T12:27:07;3.90;;;2.03;;
74223;SDS011;62585;49.706;18.216;2023-08-31T12:29:34;3.65;;;2.00;;
74223;SDS011;62585;49.706;18.216;2023-08-31T12:32:00;3.50;;;1.88;;
74223;SDS011;62585;49.706;18.216;2023-08-31T12:34:26;4.18;;;2.65;;
74223;SDS011;62585;49.706;18.216;2023-08-31T12:36:52;3.10;;;2.35;;
74223;SDS011;62585;49.706;18.216;2023-08-31T12:39:20;3.65;;;2.20;;
74223;SDS011;62585;49.706;18.216;2023-08-31T12:41:52;7.30;;;2.05;;
74223;SDS011;62585;49.706;18.216;2023-08-31T12:44:19;3.03;;;2.22;;
74223;SDS011;62585;49.706;18.216;2023-08-31T12:46:44;5.97;;;2.53;;
74223;SDS011;62585;49.706;18.216;2023-08-31T12:49:10;3.55;;;1.92;;
74223;SDS011;62585;49.706;18.216;2023-08-31T12:51:36;2.97;;;1.90;;
74223;SDS011;62585;49.706;18.216;2023-08-31T12:54:02;4.35;;;2.85;;
74223;SDS011;62585;49.706;18.216;2023-08-31T12:56:28;3.88;;;2.10;;
74223;SDS011;62585;49.706;18.216;2023-08-31T12:58:55;3.63;;;2.33;;
74223;SDS011;62585;49.706;18.216;2023-08-31T13:01:20;3.22;;;2.20;;
74223;SDS011;62585;49.706;18.216;2023-08-31T13:03:49;3.55;;;1.80;;
74223;SDS011;62585;49.706;18.216;2023-08-31T13:06:14;2.55;;;1.73;;
74223;SDS011;62585;49.706;18.216;2023-08-31T13:08:42;2.97;;;1.50;;
74223;SDS011;62585;49.706;18.216;2023-08-31T13:11:10;3.55;;;1.80;;
74223;SDS011;62585;49.706;18.216;2023-08-31T13:13:36;3.72;;;2.15;;
74223;SDS011;62585;49.706;18.216;2023-08-31T13:16:02;4.47;;;2.47;;
74223;SDS011;62585;49.706;18.216;2023-08-31T13:18:28;2.83;;;1.90;;
74223;SDS011;62585;49.706;18.216;2023-08-31T13:20:54;3.83;;;2.05;;
74223;SDS011;62585;49.706;18.216;2023-08-31T13:23:21;2.63;;;1.70;;
74223;SDS011;62585;49.706;18.216;2023-08-31T13:25:47;2.78;;;1.88;;
74223;SDS011;62585;49.706;18.216;2023-08-31T13:28:14;2.20;;;1.60;;
74223;SDS011;62585;49.706;18.216;2023-08-31T13:30:40;3.40;;;1.70;;
74223;SDS011;62585;49.706;18.216;2023-08-31T13:33:06;2.28;;;1.60;;
74223;SDS011;62585;49.706;18.216;2023-08-31T13:35:32;2.53;;;1.60;;
74223;SDS011;62585;49.706;18.216;2023-08-31T13:37:59;3.50;;;1.40;;
74223;SDS011;62585;49.706;18.216;2023-08-31T13:40:24;2.72;;;1.70;;
74223;SDS011;62585;49.706;18.216;2023-08-31T13:42:54;2.05;;;1.40;;
74223;SDS011;62585;49.706;18.216;2023-08-31T13:45:28;2.65;;;1.52;;
74223;SDS011;62585;49.706;18.216;2023-08-31T13:47:58;3.67;;;1.63;;
74223;SDS011;62585;49.706;18.216;2023-08-31T13:50:26;3.05;;;1.98;;
74223;SDS011;62585;49.706;18.216;2023-08-31T13:52:52;2.83;;;1.60;;
74223;SDS011;62585;49.706;18.216;2023-08-31T13:55:18;3.40;;;1.52;;
74223;SDS011;62585;49.706;18.216;2023-08-31T13:57:44;3.22;;;1.50;;
74223;SDS011;62585;49.706;18.216;2023-08-31T14:00:10;2.28;;;1.60;;
74223;SDS011;62585;49.706;18.216;2023-08-31T14:02:37;1.92;;;1.27;;
74223;SDS011;62585;49.706;18.216;2023-08-31T14:05:03;1.83;;;1.23;;
74223;SDS011;62585;49.706;18.216;2023-08-31T14:07:32;2.03;;;1.40;;
74223;SDS011;62585;49.706;18.216;2023-08-31T14:09:58;1.92;;;1.30;;
74223;SDS011;62585;49.706;18.216;2023-08-31T14:12:24;2.58;;;1.42;;
74223;SDS011;62585;49.706;18.216;2023-08-31T14:14:51;1.83;;;1.30;;
74223;SDS011;62585;49.706;18.216;2023-08-31T14:17:17;2.08;;;1.30;;
74223;SDS011;62585;49.706;18.216;2023-08-31T14:19:43;2.75;;;1.63;;
74223;SDS011;62585;49.706;18.216;2023-08-31T14:22:08;2.10;;;1.50;;
74223;SDS011;62585;49.706;18.216;2023-08-31T14:24:35;2.55;;;1.30;;
74223;SDS011;62585;49.706;18.216;2023-08-31T14:27:02;2.03;;;1.27;;
74223;SDS011;62585;49.706;18.216;2023-08-31T14:29:29;2.30;;;1.30;;
74223;SDS011;62585;49.706;18.216;2023-08-31T14:31:55;1.98;;;1.20;;
74223;SDS011;62585;49.706;18.216;2023-08-31T14:34:21;1.75;;;1.17;;
74223;SDS011;62585;49.706;18.216;2023-08-31T14:36:47;2.25;;;1.20;;
74223;SDS011;62585;49.706;18.216;2023-08-31T14:39:13;1.70;;;1.20;;
74223;SDS011;62585;49.706;18.216;2023-08-31T14:44:06;2.08;;;1.30;;
74223;SDS011;62585;49.706;18.216;2023-08-31T14:46:32;2.63;;;1.40;;
74223;SDS011;62585;49.706;18.216;2023-08-31T14:48:58;2.28;;;1.17;;
74223;SDS011;62585;49.706;18.216;2023-08-31T14:51:24;2.28;;;1.30;;
74223;SDS011;62585;49.706;18.216;2023-08-31T14:53:49;1.95;;;1.20;;
74223;SDS011;62585;49.706;18.216;2023-08-31T14:56:15;2.72;;;1.38;;
74223;SDS011;62585;49.706;18.216;2023-08-31T14:58:42;2.50;;;1.73;;
74223;SDS011;62585;49.706;18.216;2023-08-31T15:01:08;3.55;;;1.80;;
74223;SDS011;62585;49.706;18.216;2023-08-31T15:03:33;2.63;;;1.55;;
74223;SDS011;62585;49.706;18.216;2023-08-31T15:05:59;3.55;;;1.85;;
74223;SDS011;62585;49.706;18.216;2023-08-31T15:08:34;3.08;;;1.42;;
74223;SDS011;62585;49.706;18.216;2023-08-31T15:11:02;2.60;;;1.45;;
74223;SDS011;62585;49.706;18.216;2023-08-31T15:13:28;2.45;;;1.40;;
74223;SDS011;62585;49.706;18.216;2023-08-31T15:15:54;3.80;;;1.80;;